sensor_id;sensor_type;location;lat;lon;timestamp;P1;durP1;ratioP1;P2;durP2;ratioP2
56413;SDS011;42318;48.452;19.526;2022-10-17T00:06:57;2.13;;;1.70;;
56413;SDS011;42318;48.452;19.526;2022-10-17T00:14:28;1.95;;;1.50;;
56413;SDS011;42318;48.452;19.526;2022-10-17T00:21:59;2.63;;;1.70;;
56413;SDS011;42318;48.452;19.526;2022-10-17T00:29:30;2.47;;;1.60;;
56413;SDS011;42318;48.452;19.526;2022-10-17T00:37:00;2.45;;;1.60;;
56413;SDS011;42318;48.452;19.526;2022-10-17T00:52:03;2.10;;;1.63;;
56413;SDS011;42318;48.452;19.526;2022-10-17T00:59:38;3.60;;;1.80;;
56413;SDS011;42318;48.452;19.526;2022-10-17T01:07:11;2.08;;;1.50;;
56413;SDS011;42318;48.452;19.526;2022-10-17T01:22:31;2.33;;;1.55;;
56413;SDS011;42318;48.452;19.526;2022-10-17T01:38:06;1.90;;;1.40;;
56413;SDS011;42318;48.452;19.526;2022-10-17T01:45:48;2.15;;;1.60;;
56413;SDS011;42318;48.452;19.526;2022-10-17T01:53:24;1.50;;;1.40;;
56413;SDS011;42318;48.452;19.526;2022-10-17T02:01:00;1.90;;;1.60;;
56413;SDS011;42318;48.452;19.526;2022-10-17T02:31:54;2.13;;;1.50;;
56413;SDS011;42318;48.452;19.526;2022-10-17T02:39:25;1.85;;;1.40;;
56413;SDS011;42318;48.452;19.526;2022-10-17T02:47:20;2.50;;;1.63;;
56413;SDS011;42318;48.452;19.526;2022-10-17T02:55:05;2.47;;;2.00;;
56413;SDS011;42318;48.452;19.526;2022-10-17T03:02:47;2.28;;;1.73;;
56413;SDS011;42318;48.452;19.526;2022-10-17T03:10:22;1.70;;;1.13;;
56413;SDS011;42318;48.452;19.526;2022-10-17T03:17:53;2.80;;;1.63;;
56413;SDS011;42318;48.452;19.526;2022-10-17T03:25:23;1.70;;;1.30;;
56413;SDS011;42318;48.452;19.526;2022-10-17T03:32:58;1.40;;;1.05;;
56413;SDS011;42318;48.452;19.526;2022-10-17T03:40:29;4.78;;;1.67;;
56413;SDS011;42318;48.452;19.526;2022-10-17T03:48:00;2.05;;;1.52;;
56413;SDS011;42318;48.452;19.526;2022-10-17T03:55:31;1.92;;;1.60;;
56413;SDS011;42318;48.452;19.526;2022-10-17T04:03:01;2.33;;;1.52;;
56413;SDS011;42318;48.452;19.526;2022-10-17T04:10:32;2.17;;;1.60;;
56413;SDS011;42318;48.452;19.526;2022-10-17T04:18:03;1.75;;;1.23;;
56413;SDS011;42318;48.452;19.526;2022-10-17T04:25:33;2.15;;;1.30;;
56413;SDS011;42318;48.452;19.526;2022-10-17T04:33:04;1.58;;;1.40;;
56413;SDS011;42318;48.452;19.526;2022-10-17T04:40:35;1.88;;;1.52;;
56413;SDS011;42318;48.452;19.526;2022-10-17T04:48:06;2.78;;;1.63;;
56413;SDS011;42318;48.452;19.526;2022-10-17T04:55:37;2.47;;;1.38;;
56413;SDS011;42318;48.452;19.526;2022-10-17T05:03:08;1.83;;;1.35;;
56413;SDS011;42318;48.452;19.526;2022-10-17T05:10:39;1.83;;;1.25;;
56413;SDS011;42318;48.452;19.526;2022-10-17T05:18:12;2.40;;;1.50;;
56413;SDS011;42318;48.452;19.526;2022-10-17T05:25:43;2.20;;;1.42;;
56413;SDS011;42318;48.452;19.526;2022-10-17T05:33:14;2.05;;;1.42;;
56413;SDS011;42318;48.452;19.526;2022-10-17T05:40:45;2.60;;;1.50;;
56413;SDS011;42318;48.452;19.526;2022-10-17T05:48:15;1.60;;;1.33;;
56413;SDS011;42318;48.452;19.526;2022-10-17T05:55:53;2.15;;;1.67;;
56413;SDS011;42318;48.452;19.526;2022-10-17T06:03:28;1.75;;;1.45;;
56413;SDS011;42318;48.452;19.526;2022-10-17T06:10:59;2.22;;;1.42;;
56413;SDS011;42318;48.452;19.526;2022-10-17T06:18:30;1.75;;;1.50;;
56413;SDS011;42318;48.452;19.526;2022-10-17T06:26:01;2.25;;;1.60;;
56413;SDS011;42318;48.452;19.526;2022-10-17T06:33:34;2.30;;;1.30;;
56413;SDS011;42318;48.452;19.526;2022-10-17T06:41:06;2.15;;;1.30;;
56413;SDS011;42318;48.452;19.526;2022-10-17T06:48:39;2.70;;;1.50;;
56413;SDS011;42318;48.452;19.526;2022-10-17T06:56:09;2.15;;;1.45;;
56413;SDS011;42318;48.452;19.526;2022-10-17T07:03:40;2.08;;;1.35;;
56413;SDS011;42318;48.452;19.526;2022-10-17T07:11:13;2.42;;;1.70;;
56413;SDS011;42318;48.452;19.526;2022-10-17T07:18:47;2.10;;;1.60;;
56413;SDS011;42318;48.452;19.526;2022-10-17T07:26:19;2.05;;;1.55;;
56413;SDS011;42318;48.452;19.526;2022-10-17T07:33:50;2.38;;;1.50;;
56413;SDS011;42318;48.452;19.526;2022-10-17T07:41:21;3.03;;;1.85;;
56413;SDS011;42318;48.452;19.526;2022-10-17T07:48:51;2.17;;;1.48;;
56413;SDS011;42318;48.452;19.526;2022-10-17T07:56:22;3.13;;;2.17;;
56413;SDS011;42318;48.452;19.526;2022-10-17T08:03:54;15.15;;;4.07;;
56413;SDS011;42318;48.452;19.526;2022-10-17T08:11:24;11.68;;;3.70;;
56413;SDS011;42318;48.452;19.526;2022-10-17T08:18:55;8.70;;;3.92;;
56413;SDS011;42318;48.452;19.526;2022-10-17T08:26:26;9.75;;;3.90;;
56413;SDS011;42318;48.452;19.526;2022-10-17T08:33:56;8.13;;;3.40;;
56413;SDS011;42318;48.452;19.526;2022-10-17T08:41:42;9.30;;;3.20;;
56413;SDS011;42318;48.452;19.526;2022-10-17T08:49:41;9.02;;;3.45;;
56413;SDS011;42318;48.452;19.526;2022-10-17T08:57:18;4.50;;;2.70;;
56413;SDS011;42318;48.452;19.526;2022-10-17T09:28:52;6.95;;;3.10;;
56413;SDS011;42318;48.452;19.526;2022-10-17T09:36:29;6.25;;;2.60;;
56413;SDS011;42318;48.452;19.526;2022-10-17T09:44:11;6.60;;;2.80;;
56413;SDS011;42318;48.452;19.526;2022-10-17T09:51:45;4.88;;;2.40;;
56413;SDS011;42318;48.452;19.526;2022-10-17T09:59:28;6.17;;;2.33;;
56413;SDS011;42318;48.452;19.526;2022-10-17T10:07:02;4.30;;;2.47;;
56413;SDS011;42318;48.452;19.526;2022-10-17T10:14:36;4.72;;;2.63;;
56413;SDS011;42318;48.452;19.526;2022-10-17T10:22:15;9.00;;;3.53;;
56413;SDS011;42318;48.452;19.526;2022-10-17T10:29:51;4.32;;;2.20;;
56413;SDS011;42318;48.452;19.526;2022-10-17T10:37:24;4.80;;;2.47;;
56413;SDS011;42318;48.452;19.526;2022-10-17T10:44:59;3.97;;;1.90;;
56413;SDS011;42318;48.452;19.526;2022-10-17T10:52:41;4.93;;;2.25;;
56413;SDS011;42318;48.452;19.526;2022-10-17T11:00:36;3.33;;;2.22;;
56413;SDS011;42318;48.452;19.526;2022-10-17T11:08:11;6.20;;;2.37;;
56413;SDS011;42318;48.452;19.526;2022-10-17T11:15:51;3.78;;;2.10;;
56413;SDS011;42318;48.452;19.526;2022-10-17T11:23:33;3.78;;;2.05;;
56413;SDS011;42318;48.452;19.526;2022-10-17T11:31:11;4.60;;;2.22;;
56413;SDS011;42318;48.452;19.526;2022-10-17T11:38:46;3.55;;;2.15;;
56413;SDS011;42318;48.452;19.526;2022-10-17T11:46:22;4.82;;;1.90;;
56413;SDS011;42318;48.452;19.526;2022-10-17T11:53:56;2.47;;;1.92;;
56413;SDS011;42318;48.452;19.526;2022-10-17T12:01:36;5.80;;;2.53;;
56413;SDS011;42318;48.452;19.526;2022-10-17T12:16:51;2.97;;;2.13;;
56413;SDS011;42318;48.452;19.526;2022-10-17T12:32:11;3.95;;;2.28;;
56413;SDS011;42318;48.452;19.526;2022-10-17T12:39:42;6.65;;;2.05;;
56413;SDS011;42318;48.452;19.526;2022-10-17T12:47:36;4.57;;;2.30;;
56413;SDS011;42318;48.452;19.526;2022-10-17T12:55:15;8.93;;;3.30;;
56413;SDS011;42318;48.452;19.526;2022-10-17T13:02:48;10.18;;;3.38;;
56413;SDS011;42318;48.452;19.526;2022-10-17T13:10:25;11.52;;;3.17;;
56413;SDS011;42318;48.452;19.526;2022-10-17T13:17:59;7.60;;;2.92;;
56413;SDS011;42318;48.452;19.526;2022-10-17T13:25:30;12.60;;;3.77;;
56413;SDS011;42318;48.452;19.526;2022-10-17T13:33:01;9.88;;;3.20;;
56413;SDS011;42318;48.452;19.526;2022-10-17T13:40:37;6.85;;;3.28;;
56413;SDS011;42318;48.452;19.526;2022-10-17T13:48:16;7.57;;;3.78;;
56413;SDS011;42318;48.452;19.526;2022-10-17T14:03:25;7.47;;;3.67;;
56413;SDS011;42318;48.452;19.526;2022-10-17T14:10:55;6.22;;;3.40;;
56413;SDS011;42318;48.452;19.526;2022-10-17T14:18:28;6.90;;;2.72;;
56413;SDS011;42318;48.452;19.526;2022-10-17T14:33:43;7.18;;;3.47;;
56413;SDS011;42318;48.452;19.526;2022-10-17T14:49:01;4.68;;;2.60;;
56413;SDS011;42318;48.452;19.526;2022-10-17T14:56:36;10.05;;;2.95;;
56413;SDS011;42318;48.452;19.526;2022-10-17T15:04:10;7.30;;;2.65;;
56413;SDS011;42318;48.452;19.526;2022-10-17T15:11:41;5.78;;;2.80;;
56413;SDS011;42318;48.452;19.526;2022-10-17T15:19:12;5.90;;;2.97;;
56413;SDS011;42318;48.452;19.526;2022-10-17T15:26:43;6.87;;;2.60;;
56413;SDS011;42318;48.452;19.526;2022-10-17T15:34:14;5.35;;;3.00;;
56413;SDS011;42318;48.452;19.526;2022-10-17T15:41:45;6.72;;;2.45;;
56413;SDS011;42318;48.452;19.526;2022-10-17T15:49:17;4.38;;;2.47;;
56413;SDS011;42318;48.452;19.526;2022-10-17T15:56:51;5.47;;;2.57;;
56413;SDS011;42318;48.452;19.526;2022-10-17T16:04:24;7.30;;;2.95;;
56413;SDS011;42318;48.452;19.526;2022-10-17T16:19:27;5.18;;;2.28;;
56413;SDS011;42318;48.452;19.526;2022-10-17T16:26:59;5.67;;;2.90;;
56413;SDS011;42318;48.452;19.526;2022-10-17T16:34:29;8.63;;;2.70;;
56413;SDS011;42318;48.452;19.526;2022-10-17T16:42:01;5.00;;;2.50;;
56413;SDS011;42318;48.452;19.526;2022-10-17T16:49:32;4.88;;;2.33;;
56413;SDS011;42318;48.452;19.526;2022-10-17T16:57:03;6.35;;;2.50;;
56413;SDS011;42318;48.452;19.526;2022-10-17T17:04:34;4.82;;;2.35;;
56413;SDS011;42318;48.452;19.526;2022-10-17T17:12:04;5.00;;;2.90;;
56413;SDS011;42318;48.452;19.526;2022-10-17T17:19:35;6.82;;;2.38;;
56413;SDS011;42318;48.452;19.526;2022-10-17T17:27:06;5.47;;;3.13;;
56413;SDS011;42318;48.452;19.526;2022-10-17T17:34:37;3.63;;;2.50;;
56413;SDS011;42318;48.452;19.526;2022-10-17T17:42:07;4.63;;;2.17;;
56413;SDS011;42318;48.452;19.526;2022-10-17T17:49:38;5.68;;;2.47;;
56413;SDS011;42318;48.452;19.526;2022-10-17T17:57:09;3.50;;;2.35;;
56413;SDS011;42318;48.452;19.526;2022-10-17T18:04:39;3.50;;;2.42;;
56413;SDS011;42318;48.452;19.526;2022-10-17T18:12:10;6.50;;;2.55;;
56413;SDS011;42318;48.452;19.526;2022-10-17T18:19:41;4.40;;;2.42;;
56413;SDS011;42318;48.452;19.526;2022-10-17T18:27:12;3.88;;;2.05;;
56413;SDS011;42318;48.452;19.526;2022-10-17T18:34:45;3.40;;;2.00;;
56413;SDS011;42318;48.452;19.526;2022-10-17T18:42:16;3.63;;;2.33;;
56413;SDS011;42318;48.452;19.526;2022-10-17T18:49:47;5.50;;;2.60;;
56413;SDS011;42318;48.452;19.526;2022-10-17T18:57:18;5.65;;;2.17;;
56413;SDS011;42318;48.452;19.526;2022-10-17T19:04:49;4.95;;;2.30;;
56413;SDS011;42318;48.452;19.526;2022-10-17T19:12:19;4.32;;;2.10;;
56413;SDS011;42318;48.452;19.526;2022-10-17T19:19:50;5.57;;;2.40;;
56413;SDS011;42318;48.452;19.526;2022-10-17T19:27:22;4.05;;;2.17;;
56413;SDS011;42318;48.452;19.526;2022-10-17T19:34:53;3.88;;;2.45;;
56413;SDS011;42318;48.452;19.526;2022-10-17T19:42:23;3.65;;;2.40;;
56413;SDS011;42318;48.452;19.526;2022-10-17T19:49:54;3.85;;;2.20;;
56413;SDS011;42318;48.452;19.526;2022-10-17T19:57:25;3.30;;;1.85;;
56413;SDS011;42318;48.452;19.526;2022-10-17T20:04:55;4.80;;;2.38;;
56413;SDS011;42318;48.452;19.526;2022-10-17T20:12:26;3.45;;;2.33;;
56413;SDS011;42318;48.452;19.526;2022-10-17T20:19:57;3.25;;;2.20;;
56413;SDS011;42318;48.452;19.526;2022-10-17T20:27:28;2.63;;;1.70;;
56413;SDS011;42318;48.452;19.526;2022-10-17T20:34:59;3.10;;;2.00;;
56413;SDS011;42318;48.452;19.526;2022-10-17T20:42:30;4.38;;;2.40;;
56413;SDS011;42318;48.452;19.526;2022-10-17T20:50:01;3.85;;;2.40;;
56413;SDS011;42318;48.452;19.526;2022-10-17T20:57:31;2.72;;;1.92;;
56413;SDS011;42318;48.452;19.526;2022-10-17T21:05:02;2.92;;;1.80;;
56413;SDS011;42318;48.452;19.526;2022-10-17T21:12:33;3.08;;;1.92;;
56413;SDS011;42318;48.452;19.526;2022-10-17T21:20:04;3.63;;;2.28;;
56413;SDS011;42318;48.452;19.526;2022-10-17T21:27:35;4.13;;;2.00;;
56413;SDS011;42318;48.452;19.526;2022-10-17T21:35:06;4.35;;;2.13;;
56413;SDS011;42318;48.452;19.526;2022-10-17T21:42:37;3.15;;;2.05;;
56413;SDS011;42318;48.452;19.526;2022-10-17T21:50:08;3.17;;;1.77;;
56413;SDS011;42318;48.452;19.526;2022-10-17T21:57:38;5.53;;;2.10;;
56413;SDS011;42318;48.452;19.526;2022-10-17T22:05:09;4.50;;;2.22;;
56413;SDS011;42318;48.452;19.526;2022-10-17T22:12:40;3.20;;;2.08;;
56413;SDS011;42318;48.452;19.526;2022-10-17T22:20:10;2.67;;;1.90;;
56413;SDS011;42318;48.452;19.526;2022-10-17T22:27:41;3.55;;;2.10;;
56413;SDS011;42318;48.452;19.526;2022-10-17T22:35:12;4.22;;;2.20;;
56413;SDS011;42318;48.452;19.526;2022-10-17T22:42:43;3.13;;;1.88;;
56413;SDS011;42318;48.452;19.526;2022-10-17T22:50:13;2.95;;;1.88;;
56413;SDS011;42318;48.452;19.526;2022-10-17T22:57:44;3.67;;;1.90;;
56413;SDS011;42318;48.452;19.526;2022-10-17T23:05:15;3.47;;;2.08;;
56413;SDS011;42318;48.452;19.526;2022-10-17T23:12:46;3.47;;;2.00;;
56413;SDS011;42318;48.452;19.526;2022-10-17T23:20:16;2.95;;;2.00;;
56413;SDS011;42318;48.452;19.526;2022-10-17T23:27:47;2.47;;;1.73;;
56413;SDS011;42318;48.452;19.526;2022-10-17T23:35:18;3.60;;;2.10;;
56413;SDS011;42318;48.452;19.526;2022-10-17T23:42:48;3.05;;;1.90;;
56413;SDS011;42318;48.452;19.526;2022-10-17T23:50:19;2.97;;;1.75;;
56413;SDS011;42318;48.452;19.526;2022-10-17T23:57:50;3.22;;;1.98;;
